Aviation Digital Data Service (ADDS)

Output produced by METARs form (0450 UTC 31 October 2014)
found at http://www.aviationweather.gov/adds/metars/
 
KATL 310330Z 3104/0106 32004KT P6SM SKC 
     FM311400 32008KT P6SM SCT120 
     FM311900 31012G20KT P6SM BKN080 
     FM010100 33018G28KT P6SM BKN022 
     PROB30 0101/0106 6SM -SHRA